Time;durP1;ratioP1;P1;durP2;ratioP2;P2;SDS_P1;SDS_P2;PMS_P1;PMS_P2;Temp;Humidity;BMP_temperature;BMP_pressure;BME280_temperature;BME280_humidity;BME280_pressure;Samples;Min_cycle;Max_cycle;Signal;HPM_P1;HPM_P2
2022/07/13 00:01:39;;;;;;;;;;;;;;;;;;5011508;28;20620;-59
2022/07/13 00:04:05;;;;;;;;;;;;;;;;;;5028941;28;19928;-58
2022/07/13 00:06:31;;;;;;;;;;;;;;;;;;5026964;28;20163;-58
2022/07/13 00:08:57;;;;;;;;;;;;;;;;;;5028449;28;19928;-59
2022/07/13 00:11:23;;;;;;;;;;;;;;;;;;5028534;28;20011;-58
2022/07/13 00:13:49;;;;;;;;;;;;;;;;;;5028785;28;19912;-58
2022/07/13 00:16:15;;;;;;;;;;;;;;;;;;5028738;28;20014;-59
2022/07/13 00:18:41;;;;;;;;;;;;;;;;;;5028862;28;20382;-60
2022/07/13 00:21:07;;;;;;;;;;;;;;;;;;5028308;28;19923;-58
2022/07/13 00:23:33;;;;;;;;;;;;;;;;;;5028332;28;19928;-59
2022/07/13 00:25:59;;;;;;;;;;;;;;;;;;5027884;28;20018;-58
2022/07/13 00:28:25;;;;;;;;;;;;;;;;;;5028416;28;20018;-59
2022/07/13 00:30:51;;;;;;;;;;;;;;;;;;5028408;28;19921;-59
2022/07/13 00:33:17;;;;;;;;;;;;;;;;;;5028251;28;20293;-59
2022/07/13 00:35:43;;;;;;;;;;;;;;;;;;5027980;28;19975;-59
2022/07/13 00:38:09;;;;;;;;;;;;;;;;;;5028516;28;20012;-58
2022/07/13 00:40:35;;;;;;;;;;;;;;;;;;5027357;28;20286;-59
2022/07/13 00:43:01;;;;;;;;;;;;;;;;;;5028397;28;19987;-59
2022/07/13 00:45:26;;;;;;;;;;;;;;;;;;5028116;28;20003;-58
2022/07/13 00:47:52;;;;;;;;;;;;;;;;;;5028342;28;19921;-59
2022/07/13 00:50:18;;;;;;;;;;;;;;;;;;5027079;28;20000;-59
2022/07/13 00:52:45;;;;;;;;;;;;;;;;;;5027927;28;19928;-59
2022/07/13 00:55:11;;;;;;;;;;;;;;;;;;5012875;28;19932;-60
2022/07/13 00:57:37;;;;;;;;;;;;;;;;;;5011827;28;20021;-58
2022/07/13 01:00:04;;;;;;;;;;;;;;;;;;5015420;28;19920;-58
2022/07/13 01:02:30;;;;;;;;;;;;;;;;;;5021499;28;19924;-58
2022/07/13 01:04:56;;;;;;;;;;;;;;;;;;5019618;28;19925;-58
2022/07/13 01:07:22;;;;;;;;;;;;;;;;;;5027303;28;20284;-59
2022/07/13 01:09:48;;;;;;;;;;;;;;;;;;5027444;28;19921;-59
2022/07/13 01:12:14;;;;;;;;;;;;;;;;;;5018648;23;19920;-58
2022/07/13 01:14:40;;;;;;;;;;;;;;;;;;5008147;28;19967;-59
2022/07/13 01:17:06;;;;;;;;;;;;;;;;;;5008597;28;19933;-59
2022/07/13 01:19:32;;;;;;;;;;;;;;;;;;5006283;28;19990;-58
2022/07/13 01:21:59;;;;;;;;;;;;;;;;;;5007413;28;20067;-58
2022/07/13 01:24:25;;;;;;;;;;;;;;;;;;5007932;28;20370;-59
2022/07/13 01:26:51;;;;;;;;;;;;;;;;;;5007815;28;19928;-59
2022/07/13 01:29:17;;;;;;;;;;;;;;;;;;5007448;28;19914;-59
2022/07/13 01:31:43;;;;;;;;;;;;;;;;;;5007746;28;19929;-59
2022/07/13 01:34:09;;;;;;;;;;;;;;;;;;5008223;28;19949;-59
2022/07/13 01:36:35;;;;;;;;;;;;;;;;;;5006044;28;19921;-59
2022/07/13 01:39:01;;;;;;;;;;;;;;;;;;4990076;28;19929;-59
2022/07/13 01:41:27;;;;;;;;;;;;;;;;;;5003882;28;19976;-58
2022/07/13 01:43:53;;;;;;;;;;;;;;;;;;5003667;28;20081;-59
2022/07/13 01:46:19;;;;;;;;;;;;;;;;;;4999460;28;20359;-59
2022/07/13 01:48:45;;;;;;;;;;;;;;;;;;5005284;28;20382;-59
2022/07/13 01:51:11;;;;;;;;;;;;;;;;;;5003774;28;19922;-59
2022/07/13 01:53:37;;;;;;;;;;;;;;;;;;5005602;28;19929;-59
2022/07/13 01:56:03;;;;;;;;;;;;;;;;;;5006312;28;20351;-58
2022/07/13 01:58:29;;;;;;;;;;;;;;;;;;5004691;28;19928;-58
2022/07/13 02:00:55;;;;;;;;;;;;;;;;;;4997720;28;19922;-58
2022/07/13 02:03:21;;;;;;;;;;;;;;;;;;4991696;28;19921;-59
2022/07/13 02:05:48;;;;;;;;;;;;;;;;;;4986326;28;19921;-59
2022/07/13 02:08:14;;;;;;;;;;;;;;;;;;4987715;28;19968;-59
2022/07/13 02:10:40;;;;;;;;;;;;;;;;;;4988096;28;20004;-58
2022/07/13 02:13:06;;;;;;;;;;;;;;;;;;4987711;28;19929;-59
2022/07/13 02:15:32;;;;;;;;;;;;;;;;;;4976919;28;20309;-58
2022/07/13 02:17:58;;;;;;;;;;;;;;;;;;4990345;28;20004;-58
2022/07/13 02:20:24;;;;;;;;;;;;;;;;;;5000506;28;19921;-59
2022/07/13 02:22:50;;;;;;;;;;;;;;;;;;4988624;28;19917;-59
2022/07/13 02:25:16;;;;;;;;;;;;;;;;;;4993387;28;19922;-59
2022/07/13 02:27:42;;;;;;;;;;;;;;;;;;4994693;28;20461;-59
2022/07/13 02:30:08;;;;;;;;;;;;;;;;;;4993775;28;19928;-59
2022/07/13 02:32:34;;;;;;;;;;;;;;;;;;4993032;28;20295;-58
2022/07/13 02:35:00;;;;;;;;;;;;;;;;;;4997448;28;19921;-59
2022/07/13 02:37:26;;;;;;;;;;;;;;;;;;4998471;28;20411;-59
2022/07/13 02:39:55;;;;;;;;;;;;;;;;;;4992658;28;19928;-59
2022/07/13 02:42:21;;;;;;;;;;;;;;;;;;4996300;28;20062;-59
2022/07/13 02:44:47;;;;;;;;;;;;;;;;;;4998507;28;20379;-59
2022/07/13 02:47:13;;;;;;;;;;;;;;;;;;4996972;28;19997;-59
2022/07/13 02:49:40;;;;;;;;;;;;;;;;;;5006589;28;19922;-59
2022/07/13 02:52:06;;;;;;;;;;;;;;;;;;5004922;28;19961;-58
2022/07/13 02:54:32;;;;;;;;;;;;;;;;;;4990950;28;19967;-59
2022/07/13 02:56:58;;;;;;;;;;;;;;;;;;4973575;28;19944;-59
2022/07/13 02:59:24;;;;;;;;;;;;;;;;;;4990762;28;19968;-58
2022/07/13 03:01:50;;;;;;;;;;;;;;;;;;4990610;28;19928;-59
2022/07/13 03:04:16;;;;;;;;;;;;;;;;;;4989601;28;20012;-59
2022/07/13 03:06:42;;;;;;;;;;;;;;;;;;4991012;28;20016;-60
2022/07/13 03:09:08;;;;;;;;;;;;;;;;;;4991423;28;19928;-59
2022/07/13 03:11:34;;;;;;;;;;;;;;;;;;5009683;28;20011;-59
2022/07/13 03:14:02;;;;;;;;;;;;;;;;;;5010255;28;19922;-59
2022/07/13 03:16:28;;;;;;;;;;;;;;;;;;5001159;28;19921;-59
2022/07/13 03:18:54;;;;;;;;;;;;;;;;;;4995011;28;19965;-59
2022/07/13 03:21:20;;;;;;;;;;;;;;;;;;4989553;28;20354;-59
2022/07/13 03:23:46;;;;;;;;;;;;;;;;;;4997682;28;19925;-59
2022/07/13 03:26:12;;;;;;;;;;;;;;;;;;5010000;28;20290;-59
2022/07/13 03:28:38;;;;;;;;;;;;;;;;;;4992804;28;20008;-59
2022/07/13 03:31:05;;;;;;;;;;;;;;;;;;5009639;28;19922;-59
2022/07/13 03:33:31;;;;;;;;;;;;;;;;;;5009721;28;20208;-59
2022/07/13 03:35:57;;;;;;;;;;;;;;;;;;5009441;28;19979;-59
2022/07/13 03:38:23;;;;;;;;;;;;;;;;;;5009624;28;19921;-59
2022/07/13 03:40:49;;;;;;;;;;;;;;;;;;5009736;28;19928;-59
2022/07/13 03:43:15;;;;;;;;;;;;;;;;;;4991961;28;19917;-59
2022/07/13 03:45:42;;;;;;;;;;;;;;;;;;5008990;28;20016;-59
2022/07/13 03:48:08;;;;;;;;;;;;;;;;;;5010261;28;20004;-59
2022/07/13 03:50:34;;;;;;;;;;;;;;;;;;5008747;28;19925;-59
2022/07/13 03:53:00;;;;;;;;;;;;;;;;;;5009633;28;19926;-58
2022/07/13 03:55:26;;;;;;;;;;;;;;;;;;5009246;28;19917;-59
2022/07/13 03:57:52;;;;;;;;;;;;;;;;;;5009482;28;19921;-59
2022/07/13 04:00:18;;;;;;;;;;;;;;;;;;5008726;28;19921;-59
2022/07/13 04:02:44;;;;;;;;;;;;;;;;;;5009245;28;20363;-59
2022/07/13 04:05:10;;;;;;;;;;;;;;;;;;5009045;28;19921;-59
2022/07/13 04:07:36;;;;;;;;;;;;;;;;;;4991752;28;20382;-59
2022/07/13 04:10:02;;;;;;;;;;;;;;;;;;5009053;28;19968;-58
2022/07/13 04:12:28;;;;;;;;;;;;;;;;;;5002496;28;19972;-59
2022/07/13 04:14:54;;;;;;;;;;;;;;;;;;5008745;28;19925;-59
2022/07/13 04:17:20;;;;;;;;;;;;;;;;;;5009205;28;19921;-59
2022/07/13 04:19:46;;;;;;;;;;;;;;;;;;5008235;28;20008;-59
2022/07/13 04:22:12;;;;;;;;;;;;;;;;;;4993473;28;20439;-59
2022/07/13 04:24:38;;;;;;;;;;;;;;;;;;5006820;28;19921;-59
2022/07/13 04:27:04;;;;;;;;;;;;;;;;;;5008959;28;19976;-58
2022/07/13 04:29:30;;;;;;;;;;;;;;;;;;5008220;28;19921;-59
2022/07/13 04:31:56;;;;;;;;;;;;;;;;;;5008936;28;20413;-59
2022/07/13 04:34:22;;;;;;;;;;;;;;;;;;5008046;28;19968;-59
2022/07/13 04:36:48;;;;;;;;;;;;;;;;;;5008576;28;19929;-59
2022/07/13 04:39:14;;;;;;;;;;;;;;;;;;5008500;28;20012;-59
2022/07/13 04:41:40;;;;;;;;;;;;;;;;;;5008957;28;20058;-59
2022/07/13 04:44:06;;;;;;;;;;;;;;;;;;5009033;28;19948;-59
2022/07/13 04:46:32;;;;;;;;;;;;;;;;;;5008309;28;19932;-59
2022/07/13 04:48:58;;;;;;;;;;;;;;;;;;4991185;28;19944;-59
2022/07/13 04:51:25;;;;;;;;;;;;;;;;;;4999099;28;19996;-59
2022/07/13 04:53:51;;;;;;;;;;;;;;;;;;5004709;28;19922;-59
2022/07/13 04:56:17;;;;;;;;;;;;;;;;;;5000390;28;19926;-59
2022/07/13 04:58:43;;;;;;;;;;;;;;;;;;4990536;28;20477;-59
2022/07/13 05:01:09;;;;;;;;;;;;;;;;;;5005201;28;19961;-59
2022/07/13 05:03:36;;;;;;;;;;;;;;;;;;5005375;28;19968;-59
2022/07/13 05:06:02;;;;;;;;;;;;;;;;;;4989773;28;19921;-59
2022/07/13 05:08:29;;;;;;;;;;;;;;;;;;4988970;28;19929;-59
2022/07/13 05:10:54;;;;;;;;;;;;;;;;;;4989940;28;19964;-59
2022/07/13 05:13:20;;;;;;;;;;;;;;;;;;4997683;28;20490;-59
2022/07/13 05:15:46;;;;;;;;;;;;;;;;;;5004407;28;19945;-59
2022/07/13 05:18:13;;;;;;;;;;;;;;;;;;4991843;28;19921;-60
2022/07/13 05:20:39;;;;;;;;;;;;;;;;;;5000913;28;20013;-60
2022/07/13 05:23:05;;;;;;;;;;;;;;;;;;4996933;28;19917;-58
2022/07/13 05:25:31;;;;;;;;;;;;;;;;;;4998717;28;20279;-59
2022/07/13 05:27:57;;;;;;;;;;;;;;;;;;4987301;28;19921;-59
2022/07/13 05:30:23;;;;;;;;;;;;;;;;;;4990679;28;19921;-59
2022/07/13 05:32:49;;;;;;;;;;;;;;;;;;5003849;28;20012;-59
2022/07/13 05:35:15;;;;;;;;;;;;;;;;;;5000428;28;20048;-59
2022/07/13 05:37:41;;;;;;;;;;;;;;;;;;4995139;28;19994;-61
2022/07/13 05:40:07;;;;;;;;;;;;;;;;;;5001321;28;20446;-59
2022/07/13 05:42:33;;;;;;;;;;;;;;;;;;5002443;28;19928;-59
2022/07/13 05:44:59;;;;;;;;;;;;;;;;;;5003067;28;19932;-61
2022/07/13 05:47:25;;;;;;;;;;;;;;;;;;4994301;28;20394;-59
2022/07/13 05:49:51;;;;;;;;;;;;;;;;;;5004041;28;20067;-60
2022/07/13 05:52:17;;;;;;;;;;;;;;;;;;4985420;28;20395;-60
2022/07/13 05:54:43;;;;;;;;;;;;;;;;;;4994974;28;19925;-62
2022/07/13 05:57:09;;;;;;;;;;;;;;;;;;5004865;28;19932;-61
2022/07/13 05:59:35;;;;;;;;;;;;;;;;;;4978292;28;19925;-62
2022/07/13 06:02:01;;;;;;;;;;;;;;;;;;4995824;28;19930;-61
2022/07/13 06:04:28;;;;;;;;;;;;;;;;;;4986399;28;19929;-63
2022/07/13 06:06:54;;;;;;;;;;;;;;;;;;4989392;28;19925;-61
2022/07/13 06:09:21;;;;;;;;;;;;;;;;;;4991745;28;19921;-61
2022/07/13 06:11:47;;;;;;;;;;;;;;;;;;4970277;28;20285;-62
2022/07/13 06:14:14;;;;;;;;;;;;;;;;;;4989853;28;19932;-61
2022/07/13 06:16:40;;;;;;;;;;;;;;;;;;4990537;28;20018;-62
2022/07/13 06:19:08;;;;;;;;;;;;;;;;;;4992960;28;19980;-61
2022/07/13 06:21:35;;;;;;;;;;;;;;;;;;4991611;28;19925;-61
2022/07/13 06:24:02;;;;;;;;;;;;;;;;;;4988668;28;19926;-61
2022/07/13 06:26:28;;;;;;;;;;;;;;;;;;4987809;28;19932;-62
2022/07/13 06:28:54;;;;;;;;;;;;;;;;;;4990307;28;19924;-61
2022/07/13 06:31:20;;;;;;;;;;;;;;;;;;4991541;28;19921;-60
2022/07/13 06:33:51;;;;;;;;;;;;;;;;;;4992144;28;19985;-60
2022/07/13 06:36:17;;;;;;;;;;;;;;;;;;4990916;28;20396;-61
2022/07/13 06:38:43;;;;;;;;;;;;;;;;;;4999717;28;20020;-60
2022/07/13 06:41:09;;;;;;;;;;;;;;;;;;4996958;28;20141;-60
2022/07/13 06:43:35;;;;;;;;;;;;;;;;;;4993433;28;19928;-61
2022/07/13 06:46:01;;;;;;;;;;;;;;;;;;4991537;28;20303;-62
2022/07/13 06:48:27;;;;;;;;;;;;;;;;;;4991697;28;19921;-60
2022/07/13 06:50:54;;;;;;;;;;;;;;;;;;4998392;28;19929;-62
2022/07/13 06:53:20;;;;;;;;;;;;;;;;;;4992588;28;19988;-65
2022/07/13 06:55:47;;;;;;;;;;;;;;;;;;4993122;28;19958;-63
2022/07/13 06:58:14;;;;;;;;;;;;;;;;;;4987886;28;19925;-63
2022/07/13 07:00:41;;;;;;;;;;;;;;;;;;4997472;28;19925;-63
2022/07/13 07:03:08;;;;;;;;;;;;;;;;;;4973728;28;20004;-63
2022/07/13 07:05:34;;;;;;;;;;;;;;;;;;4986403;28;19968;-63
2022/07/13 07:08:02;;;;;;;;;;;;;;;;;;4990867;28;19925;-63
2022/07/13 07:10:28;;;;;;;;;;;;;;;;;;4991272;28;19976;-63
2022/07/13 07:12:55;;;;;;;;;;;;;;;;;;4986508;28;19969;-63
2022/07/13 07:15:23;;;;;;;;;;;;;;;;;;4988973;28;19985;-63
2022/07/13 07:17:49;;;;;;;;;;;;;;;;;;4996931;28;21434;-62
2022/07/13 07:20:16;;;;;;;;;;;;;;;;;;4998240;28;20333;-63
2022/07/13 07:22:42;;;;;;;;;;;;;;;;;;4977999;28;20589;-62
2022/07/13 07:25:08;;;;;;;;;;;;;;;;;;4994744;28;19932;-62
2022/07/13 07:27:34;;;;;;;;;;;;;;;;;;4998239;28;19979;-63
2022/07/13 07:30:00;;;;;;;;;;;;;;;;;;4995079;28;20239;-62
2022/07/13 07:32:27;;;;;;;;;;;;;;;;;;4973781;28;20705;-62
2022/07/13 07:34:53;;;;;;;;;;;;;;;;;;4994077;28;19933;-62
2022/07/13 07:37:20;;;;;;;;;;;;;;;;;;4999347;28;19921;-62
2022/07/13 07:39:47;;;;;;;;;;;;;;;;;;4997574;28;19947;-62
2022/07/13 07:42:13;;;;;;;;;;;;;;;;;;4999124;28;19913;-62
2022/07/13 07:44:39;;;;;;;;;;;;;;;;;;5001623;28;19925;-61
2022/07/13 07:47:05;;;;;;;;;;;;;;;;;;4996544;28;20390;-61
2022/07/13 07:49:32;;;;;;;;;;;;;;;;;;4999226;28;19929;-61
2022/07/13 07:51:59;;;;;;;;;;;;;;;;;;4994745;28;20070;-61
2022/07/13 07:54:25;;;;;;;;;;;;;;;;;;4993216;28;20370;-61
2022/07/13 07:56:51;;;;;;;;;;;;;;;;;;4991426;28;19925;-61
2022/07/13 07:59:17;;;;;;;;;;;;;;;;;;4991099;28;20466;-61
2022/07/13 08:01:43;;;;;;;;;;;;;;;;;;4999000;28;19933;-61
2022/07/13 08:04:09;;;;;;;;;;;;;;;;;;4998294;28;19925;-61
2022/07/13 08:06:35;;;;;;;;;;;;;;;;;;4996962;28;19928;-61
2022/07/13 08:09:01;;;;;;;;;;;;;;;;;;4979367;28;20318;-61
2022/07/13 08:11:27;;;;;;;;;;;;;;;;;;4986246;28;20016;-62
2022/07/13 08:13:53;;;;;;;;;;;;;;;;;;4990887;28;19928;-62
2022/07/13 08:16:19;;;;;;;;;;;;;;;;;;4997949;28;20291;-61
2022/07/13 08:18:46;;;;;;;;;;;;;;;;;;4995252;28;19929;-61
2022/07/13 08:21:12;;;;;;;;;;;;;;;;;;4997475;28;19968;-62
2022/07/13 08:23:51;;;;;;;;;;;;;;;;;;4986897;28;19925;-61
2022/07/13 08:26:17;;;;;;;;;;;;;;;;;;4987739;28;19929;-62
2022/07/13 08:28:44;;;;;;;;;;;;;;;;;;4988157;28;19932;-62
2022/07/13 08:31:11;;;;;;;;;;;;;;;;;;4988105;28;19926;-61
2022/07/13 08:39:06;;;;;;;;;;;;;;;;;;4986353;28;20609;-61
2022/07/13 08:41:32;;;;;;;;;;;;;;;;;;4970291;28;20008;-62
2022/07/13 08:43:58;;;;;;;;;;;;;;;;;;5000029;28;19926;-62
2022/07/13 08:46:24;;;;;;;;;;;;;;;;;;4985390;28;19926;-61
2022/07/13 08:48:50;;;;;;;;;;;;;;;;;;4995787;28;19960;-62
2022/07/13 08:51:16;;;;;;;;;;;;;;;;;;5004300;28;20072;-62
2022/07/13 08:53:42;;;;;;;;;;;;;;;;;;4989385;28;20860;-62
2022/07/13 08:56:08;;;;;;;;;;;;;;;;;;4997381;28;19922;-62
2022/07/13 08:58:34;;;;;;;;;;;;;;;;;;5000896;28;19983;-61
2022/07/13 09:01:00;;;;;;;;;;;;;;;;;;4987629;28;19925;-62
2022/07/13 09:03:26;;;;;;;;;;;;;;;;;;4972270;28;20529;-61
2022/07/13 09:05:52;;;;;;;;;;;;;;;;;;4983012;28;19938;-61
2022/07/13 09:08:18;;;;;;;;;;;;;;;;;;5003007;28;19983;-61
2022/07/13 09:10:44;;;;;;;;;;;;;;;;;;4998482;28;19917;-61
2022/07/13 09:13:10;;;;;;;;;;;;;;;;;;4985898;28;19934;-61
2022/07/13 09:15:36;;;;;;;;;;;;;;;;;;4977681;28;20252;-61
2022/07/13 09:18:02;;;;;;;;;;;;;;;;;;4996191;28;19928;-61
2022/07/13 09:20:28;;;;;;;;;;;;;;;;;;4999934;28;19929;-61
2022/07/13 09:22:54;;;;;;;;;;;;;;;;;;4981211;28;20172;-60
2022/07/13 09:25:20;;;;;;;;;;;;;;;;;;4995986;28;19929;-61
2022/07/13 09:27:47;;;;;;;;;;;;;;;;;;4976964;28;19922;-61
2022/07/13 09:30:13;;;;;;;;;;;;;;;;;;4989849;28;20156;-62
2022/07/13 09:32:44;;;;;;;;;;;;;;;;;;4991187;28;20291;-61
2022/07/13 09:35:11;;;;;;;;;;;;;;;;;;4991837;28;19968;-62
2022/07/13 09:37:37;;;;;;;;;;;;;;;;;;4993161;28;19973;-62
2022/07/13 09:40:06;;;;;;;;;;;;;;;;;;4992241;28;20291;-62
2022/07/13 09:42:32;;;;;;;;;;;;;;;;;;4985990;28;19932;-62
2022/07/13 09:47:43;;;;;;;;;;;;;;;;;;4990736;28;19925;-61
2022/07/13 09:50:09;;;;;;;;;;;;;;;;;;4993080;28;19929;-61
2022/07/13 09:52:35;;;;;;;;;;;;;;;;;;4985408;28;19932;-62
2022/07/13 09:55:01;;;;;;;;;;;;;;;;;;4984285;28;20008;-62
2022/07/13 09:57:27;;;;;;;;;;;;;;;;;;5001814;28;19948;-62
2022/07/13 09:59:53;;;;;;;;;;;;;;;;;;4999754;28;19985;-61
2022/07/13 10:02:20;;;;;;;;;;;;;;;;;;4996820;28;19921;-61
2022/07/13 10:04:47;;;;;;;;;;;;;;;;;;4997191;28;20406;-61
2022/07/13 10:07:13;;;;;;;;;;;;;;;;;;4992236;28;19922;-62
2022/07/13 10:09:39;;;;;;;;;;;;;;;;;;4990043;28;20549;-61
2022/07/13 10:12:09;;;;;;;;;;;;;;;;;;4999229;28;19928;-62
2022/07/13 10:14:35;;;;;;;;;;;;;;;;;;4996970;28;20016;-61
2022/07/13 10:17:01;;;;;;;;;;;;;;;;;;4998566;28;20008;-61
2022/07/13 10:19:28;;;;;;;;;;;;;;;;;;5001686;28;20499;-62
2022/07/13 10:21:53;;;;;;;;;;;;;;;;;;5000064;28;19976;-62
2022/07/13 10:24:20;;;;;;;;;;;;;;;;;;4997263;28;19961;-62
2022/07/13 10:26:46;;;;;;;;;;;;;;;;;;5001048;28;19932;-62
2022/07/13 10:29:12;;;;;;;;;;;;;;;;;;4997624;28;19931;-63
2022/07/13 10:31:38;;;;;;;;;;;;;;;;;;4980893;28;19922;-61
2022/07/13 10:34:04;;;;;;;;;;;;;;;;;;4997394;28;19987;-61
2022/07/13 10:36:30;;;;;;;;;;;;;;;;;;5002658;28;20043;-61
2022/07/13 10:38:56;;;;;;;;;;;;;;;;;;4996636;28;20661;-62
2022/07/13 10:41:23;;;;;;;;;;;;;;;;;;5000064;28;19976;-61
2022/07/13 10:43:49;;;;;;;;;;;;;;;;;;4998604;28;20852;-62
2022/07/13 10:46:15;;;;;;;;;;;;;;;;;;5001534;28;19928;-61
2022/07/13 10:48:42;;;;;;;;;;;;;;;;;;5000092;28;19922;-62
2022/07/13 10:51:08;;;;;;;;;;;;;;;;;;5000633;28;19921;-61
2022/07/13 10:53:34;;;;;;;;;;;;;;;;;;5006012;28;19921;-61
2022/07/13 10:56:00;;;;;;;;;;;;;;;;;;5000248;28;20303;-62
2022/07/13 10:58:26;;;;;;;;;;;;;;;;;;4995645;28;19925;-62
2022/07/13 11:00:52;;;;;;;;;;;;;;;;;;4998926;28;20298;-62
2022/07/13 11:03:18;;;;;;;;;;;;;;;;;;4994399;28;19921;-62
2022/07/13 11:05:44;;;;;;;;;;;;;;;;;;4994886;28;19925;-62
2022/07/13 11:08:10;;;;;;;;;;;;;;;;;;4993001;28;20606;-61
2022/07/13 11:10:36;;;;;;;;;;;;;;;;;;5004254;28;19921;-62
2022/07/13 11:13:03;;;;;;;;;;;;;;;;;;4994079;28;19925;-61
2022/07/13 11:15:29;;;;;;;;;;;;;;;;;;4992059;28;19932;-62
2022/07/13 11:17:55;;;;;;;;;;;;;;;;;;4988234;28;19932;-62
2022/07/13 11:20:21;;;;;;;;;;;;;;;;;;4993590;28;19926;-62
2022/07/13 11:25:32;;;;;;;;;;;;;;;;;;4996853;28;20082;-62
2022/07/13 11:27:58;;;;;;;;;;;;;;;;;;4992408;28;20287;-62
2022/07/13 11:30:24;;;;;;;;;;;;;;;;;;4996205;28;19932;-62
2022/07/13 11:32:50;;;;;;;;;;;;;;;;;;4989552;28;19925;-62
2022/07/13 11:35:16;;;;;;;;;;;;;;;;;;4991402;28;20156;-62
2022/07/13 11:37:42;;;;;;;;;;;;;;;;;;4998578;28;20039;-62
2022/07/13 11:40:08;;;;;;;;;;;;;;;;;;4992582;28;19945;-62
2022/07/13 11:42:34;;;;;;;;;;;;;;;;;;4993458;28;19926;-62
2022/07/13 11:45:00;;;;;;;;;;;;;;;;;;4994158;28;19922;-63
2022/07/13 11:47:27;;;;;;;;;;;;;;;;;;4997513;28;20558;-61
2022/07/13 11:49:54;;;;;;;;;;;;;;;;;;4997610;28;20450;-64
2022/07/13 11:52:20;;;;;;;;;;;;;;;;;;4996865;28;20008;-61
2022/07/13 11:54:46;;;;;;;;;;;;;;;;;;4999255;28;20005;-63
2022/07/13 11:57:12;;;;;;;;;;;;;;;;;;4997255;28;19936;-62
2022/07/13 11:59:38;;;;;;;;;;;;;;;;;;4996477;28;19945;-63
2022/07/13 12:02:04;;;;;;;;;;;;;;;;;;4994664;28;19932;-62
2022/07/13 12:04:30;;;;;;;;;;;;;;;;;;4997931;28;19928;-62
2022/07/13 12:06:56;;;;;;;;;;;;;;;;;;5001009;28;19925;-62
2022/07/13 12:09:22;;;;;;;;;;;;;;;;;;5003452;28;19925;-62
2022/07/13 12:11:48;;;;;;;;;;;;;;;;;;5000647;28;20348;-63
2022/07/13 12:14:15;;;;;;;;;;;;;;;;;;4999956;28;19925;-62
2022/07/13 12:16:41;;;;;;;;;;;;;;;;;;4990672;28;20376;-62
2022/07/13 12:19:09;;;;;;;;;;;;;;;;;;4993546;28;19957;-62
2022/07/13 12:21:35;;;;;;;;;;;;;;;;;;4993244;28;20025;-62
2022/07/13 12:24:01;;;;;;;;;;;;;;;;;;4989965;28;19925;-61
2022/07/13 12:26:27;;;;;;;;;;;;;;;;;;4995903;28;19930;-61
2022/07/13 12:28:53;;;;;;;;;;;;;;;;;;4998071;28;19932;-62
2022/07/13 12:31:20;;;;;;;;;;;;;;;;;;4990628;28;19973;-61
2022/07/13 12:33:46;;;;;;;;;;;;;;;;;;4991566;28;19921;-61
2022/07/13 12:36:12;;;;;;;;;;;;;;;;;;4992716;28;19922;-62
2022/07/13 12:38:38;;;;;;;;;;;;;;;;;;4993822;28;19968;-62
2022/07/13 12:41:04;;;;;;;;;;;;;;;;;;5002171;28;19972;-62
2022/07/13 12:43:30;;;;;;;;;;;;;;;;;;4999910;28;19926;-62
2022/07/13 12:45:56;;;;;;;;;;;;;;;;;;4999714;28;19929;-61
2022/07/13 12:48:22;;;;;;;;;;;;;;;;;;4991062;28;20287;-61
2022/07/13 12:50:48;;;;;;;;;;;;;;;;;;4997969;28;20016;-61
2022/07/13 12:53:14;;;;;;;;;;;;;;;;;;4989444;28;19925;-61
2022/07/13 12:55:40;;;;;;;;;;;;;;;;;;4994698;28;19937;-61
2022/07/13 12:58:06;;;;;;;;;;;;;;;;;;4995079;28;20038;-62
2022/07/13 13:00:32;;;;;;;;;;;;;;;;;;5005848;28;19925;-61
2022/07/13 13:03:00;;;;;;;;;;;;;;;;;;4995225;28;19926;-61
2022/07/13 13:05:26;;;;;;;;;;;;;;;;;;4992887;28;19921;-61
2022/07/13 13:07:52;;;;;;;;;;;;;;;;;;4994929;28;20295;-60
2022/07/13 13:10:18;;;;;;;;;;;;;;;;;;4996015;28;19921;-61
2022/07/13 13:12:44;;;;;;;;;;;;;;;;;;4994376;28;19926;-61
2022/07/13 13:15:10;;;;;;;;;;;;;;;;;;4990694;28;19921;-61
2022/07/13 13:17:36;;;;;;;;;;;;;;;;;;4989102;28;20335;-61
2022/07/13 13:20:02;;;;;;;;;;;;;;;;;;4992548;28;19925;-61
2022/07/13 13:22:28;;;;;;;;;;;;;;;;;;4998203;28;19965;-60
2022/07/13 13:24:54;;;;;;;;;;;;;;;;;;4996912;28;19926;-61
2022/07/13 13:27:20;;;;;;;;;;;;;;;;;;5002140;28;20008;-61
2022/07/13 13:32:30;;;;;;;;;;;;;;;;;;4996549;28;19925;-61
2022/07/13 13:34:57;;;;;;;;;;;;;;;;;;4993119;28;20032;-61
2022/07/13 13:37:23;;;;;;;;;;;;;;;;;;4996677;28;19929;-61
2022/07/13 13:39:49;;;;;;;;;;;;;;;;;;5000291;28;19948;-61
2022/07/13 13:42:15;;;;;;;;;;;;;;;;;;4999826;28;19957;-61
2022/07/13 13:44:41;;;;;;;;;;;;;;;;;;4997148;28;20016;-61
2022/07/13 13:47:08;;;;;;;;;;;;;;;;;;4992821;28;20380;-61
2022/07/13 13:49:34;;;;;;;;;;;;;;;;;;4996248;28;19933;-61
2022/07/13 13:52:00;;;;;;;;;;;;;;;;;;4996905;28;20618;-61
2022/07/13 13:54:26;;;;;;;;;;;;;;;;;;4997952;28;19968;-61
2022/07/13 13:56:52;;;;;;;;;;;;;;;;;;5004042;28;19969;-61
2022/07/13 13:59:18;;;;;;;;;;;;;;;;;;5002146;28;19975;-61
2022/07/13 14:01:44;;;;;;;;;;;;;;;;;;4999267;28;20359;-61
2022/07/13 14:04:10;;;;;;;;;;;;;;;;;;4983517;28;20000;-61
2022/07/13 14:06:36;;;;;;;;;;;;;;;;;;4998793;28;19921;-61
2022/07/13 14:09:02;;;;;;;;;;;;;;;;;;4997711;28;19917;-61
2022/07/13 14:11:28;;;;;;;;;;;;;;;;;;5006525;28;19934;-61
2022/07/13 14:13:54;;;;;;;;;;;;;;;;;;4988579;28;19929;-61
2022/07/13 14:16:20;;;;;;;;;;;;;;;;;;4998349;28;19925;-61
2022/07/13 14:18:47;;;;;;;;;;;;;;;;;;4999185;28;20361;-61
2022/07/13 14:21:13;;;;;;;;;;;;;;;;;;4995865;28;20016;-61
2022/07/13 14:23:39;;;;;;;;;;;;;;;;;;5002714;28;20019;-61
2022/07/13 14:26:05;;;;;;;;;;;;;;;;;;5000927;28;20435;-61
2022/07/13 14:28:31;;;;;;;;;;;;;;;;;;4980900;28;20028;-61
2022/07/13 14:30:57;;;;;;;;;;;;;;;;;;4999023;28;20051;-61
2022/07/13 14:33:23;;;;;;;;;;;;;;;;;;4993585;28;19927;-61
2022/07/13 14:35:49;;;;;;;;;;;;;;;;;;4998362;28;19925;-61
2022/07/13 14:38:15;;;;;;;;;;;;;;;;;;5001451;28;20401;-61
2022/07/13 14:40:41;;;;;;;;;;;;;;;;;;4987744;28;19968;-61
2022/07/13 14:43:07;;;;;;;;;;;;;;;;;;4994490;28;19933;-61
2022/07/13 14:45:33;;;;;;;;;;;;;;;;;;4999656;28;19995;-61
2022/07/13 14:47:59;;;;;;;;;;;;;;;;;;4995596;28;19928;-61
2022/07/13 14:50:25;;;;;;;;;;;;;;;;;;4992311;28;19922;-61
2022/07/13 14:52:51;;;;;;;;;;;;;;;;;;4995471;28;19921;-61
2022/07/13 14:55:17;;;;;;;;;;;;;;;;;;4994835;28;20334;-61
2022/07/13 14:57:43;;;;;;;;;;;;;;;;;;4997814;28;19922;-61
2022/07/13 15:00:09;;;;;;;;;;;;;;;;;;5000170;28;19929;-62
2022/07/13 15:02:35;;;;;;;;;;;;;;;;;;4990754;28;19949;-60
2022/07/13 15:05:03;;;;;;;;;;;;;;;;;;4995263;28;19921;-59
2022/07/13 15:07:29;;;;;;;;;;;;;;;;;;4993428;28;19922;-61
2022/07/13 15:09:55;;;;;;;;;;;;;;;;;;4994230;28;19921;-61
2022/07/13 15:12:21;;;;;;;;;;;;;;;;;;4946555;28;1240128;-61
2022/07/13 15:14:47;;;;;;;;;;;;;;;;;;4999623;28;19922;-61
2022/07/13 15:17:13;;;;;;;;;;;;;;;;;;4995010;28;19953;-61
2022/07/13 15:19:39;;;;;;;;;;;;;;;;;;4994413;28;19965;-61
2022/07/13 15:22:05;;;;;;;;;;;;;;;;;;4998266;28;20347;-61
2022/07/13 15:24:31;;;;;;;;;;;;;;;;;;4993955;28;20589;-60
2022/07/13 15:26:57;;;;;;;;;;;;;;;;;;4993256;28;20377;-60
2022/07/13 15:29:23;;;;;;;;;;;;;;;;;;4994346;28;20016;-61
2022/07/13 15:31:49;;;;;;;;;;;;;;;;;;4994289;28;20045;-61
2022/07/13 15:34:15;;;;;;;;;;;;;;;;;;4984949;28;19934;-60
2022/07/13 15:36:41;;;;;;;;;;;;;;;;;;4996329;28;19921;-60
2022/07/13 15:39:07;;;;;;;;;;;;;;;;;;4993548;28;19921;-60
2022/07/13 15:41:33;;;;;;;;;;;;;;;;;;4994164;28;19928;-60
2022/07/13 15:43:59;;;;;;;;;;;;;;;;;;5004782;28;19993;-59
2022/07/13 15:46:25;;;;;;;;;;;;;;;;;;5001316;28;20367;-59
2022/07/13 15:48:52;;;;;;;;;;;;;;;;;;5003137;28;19927;-59
2022/07/13 15:51:18;;;;;;;;;;;;;;;;;;5002603;28;19939;-59
2022/07/13 15:53:44;;;;;;;;;;;;;;;;;;4994433;28;19936;-60
2022/07/13 15:56:10;;;;;;;;;;;;;;;;;;4974980;28;20008;-59
2022/07/13 15:58:36;;;;;;;;;;;;;;;;;;5003911;28;19936;-59
2022/07/13 16:01:02;;;;;;;;;;;;;;;;;;4997137;28;19925;-59
2022/07/13 16:03:28;;;;;;;;;;;;;;;;;;4993439;28;19930;-60
2022/07/13 16:05:54;;;;;;;;;;;;;;;;;;4996122;28;19928;-60
2022/07/13 16:08:20;;;;;;;;;;;;;;;;;;4992121;28;19972;-60
2022/07/13 16:10:46;;;;;;;;;;;;;;;;;;4995869;28;19953;-59
2022/07/13 16:13:12;;;;;;;;;;;;;;;;;;4993511;28;20387;-62
2022/07/13 16:15:38;;;;;;;;;;;;;;;;;;4995602;28;19976;-59
2022/07/13 16:18:04;;;;;;;;;;;;;;;;;;4991791;28;19937;-59
2022/07/13 16:20:30;;;;;;;;;;;;;;;;;;4995050;28;19969;-59
2022/07/13 16:22:56;;;;;;;;;;;;;;;;;;4977370;28;19972;-59
2022/07/13 16:25:22;;;;;;;;;;;;;;;;;;4993300;28;19918;-59
2022/07/13 16:27:48;;;;;;;;;;;;;;;;;;4989090;28;19990;-59
2022/07/13 16:30:14;;;;;;;;;;;;;;;;;;4994465;28;19964;-59
2022/07/13 16:32:40;;;;;;;;;;;;;;;;;;4997743;28;19922;-59
2022/07/13 16:35:06;;;;;;;;;;;;;;;;;;5000246;28;20291;-59
2022/07/13 16:37:32;;;;;;;;;;;;;;;;;;4993212;28;19929;-60
2022/07/13 16:39:58;;;;;;;;;;;;;;;;;;4996317;28;19930;-60
2022/07/13 16:42:24;;;;;;;;;;;;;;;;;;4993125;28;19973;-60
2022/07/13 16:44:51;;;;;;;;;;;;;;;;;;5000950;28;19948;-60
2022/07/13 16:47:17;;;;;;;;;;;;;;;;;;5001348;28;20020;-60
2022/07/13 16:49:43;;;;;;;;;;;;;;;;;;5002292;28;20725;-60
2022/07/13 16:52:11;;;;;;;;;;;;;;;;;;4999117;28;20545;-60